Portada
METAR-TAF:

METAR-TAF

Aeroports :

Berlevåg, Noruega

latitud: 70-52N, longitud: 029-02E, altitud: 1 m

Observació

L'informe es va fer fa 10 hores i 27 minuts, a les 20:50 UTC
Vent 7 kt del Est
Temperatura 9°C
Humitat 93%
Pressió 1014 hPa
Visibilitat 10 km o més
Escasses núvols a una alçada de 2000 ft
Núvols disperses a una alçada de 3600 ft
Cel ennuvolat a una alçada de 8300 ft

METAR: ENBV 192050Z 10007KT 9999 FEW020 SCT036 BKN083 09/08 Q1014

Hora: 09:17 (07:17 UTC)

Pronòstic

L'informe es va fer fa 14 hores i 17 minuts, a les 17:00 UTC
Pronòstic vàlid del 19 a les 17 UTC al 19 a les 21 UTC
Vent 8 kt del Est/Sud-Est
Visibilitat 10 km o més
Núvols disperses a una alçada de 4000 ft

TAF: ENBV 191700Z 1917/1921 12008KT 9999 SCT040

Observacions i pronòstics meteorològics de més de 4000 aeroports (METAR i TAF).

Les estacions disponibles són els punts grocs i vermells al mapa.

Posi el ratolí al punt desitjat per veure el nom de l'estació.

Feu clic per veure les observacions i els pronòstics meteorològics.

Per canviar el mapa: feu clic els botons verds amb una creu de color negre per apropar; al botó verd amb un guió per allunyar la imatge; o en les fletxes verdes per a mapes adjacents.


METAR-TAF: